Fishing Creek, Maryland
Current Conditions -  °F | °C
As of 9:52 PM on Friday 19 Dec 2014 (Local Time) from KNHK Reporting Station
Clear Clear  
Wind Chill: 25°   Ceiling: Unl
Heat Index: 33°   Visibility: 10mi
Dew Point: 23°   Wind: 9mph
Humidity: 66%   Direction: 300°WNW
Pressure: 30.24"   Gusts: NA
Location:  38.31°N, 76.23°W
Report Text: KNHK 200252Z 30008KT 10SM CLR 01/M05 A3024 RMK AO2 SLP239 T00061050 51012
Loading
Personal Weather Stations






























Interactive Weather Map New forecast layout! Learn more

10-Day Weather Forecast

Advertisements
Track Severe Weather on mobile